createdAt,value
2022-10-16T00:01:31.607Z,100.00
2022-10-16T00:06:35.918Z,100.00
2022-10-16T00:11:41.473Z,100.00
2022-10-16T00:16:46.731Z,100.00
2022-10-16T00:21:50.507Z,100.00
2022-10-16T00:27:13.187Z,100.00
2022-10-16T00:32:18.683Z,100.00
2022-10-16T00:37:22.849Z,100.00
2022-10-16T00:42:27.860Z,100.00
2022-10-16T00:47:52.471Z,100.00
2022-10-16T00:52:58.078Z,100.00
2022-10-16T00:58:02.214Z,100.00
2022-10-16T01:03:25.672Z,100.00
2022-10-16T01:08:36.629Z,100.00
2022-10-16T01:13:43.768Z,100.00
2022-10-16T01:18:49.306Z,100.00
2022-10-16T01:24:00.015Z,100.00
2022-10-16T01:29:09.319Z,100.00
2022-10-16T01:34:18.198Z,100.00
2022-10-16T01:39:24.318Z,100.00
2022-10-16T01:44:32.587Z,100.00
2022-10-16T01:49:38.850Z,100.00
2022-10-16T02:00:42.155Z,100.00
2022-10-16T02:05:48.861Z,100.00
2022-10-16T02:10:52.774Z,100.00
2022-10-16T02:15:57.742Z,100.00
2022-10-16T02:21:05.353Z,100.00
2022-10-16T02:26:11.685Z,100.00
2022-10-16T02:31:20.794Z,100.00
2022-10-16T02:36:24.395Z,100.00
2022-10-16T02:41:27.994Z,100.00
2022-10-16T03:21:16.080Z,100.00
2022-10-16T03:26:19.893Z,100.00
2022-10-16T03:31:23.657Z,100.00
2022-10-16T03:36:28.572Z,100.00
2022-10-16T03:41:32.069Z,100.00
2022-10-16T03:46:35.559Z,100.00
2022-10-16T03:51:40.448Z,100.00
2022-10-16T03:56:44.057Z,100.00
2022-10-16T04:01:49.520Z,100.00
2022-10-16T04:06:56.127Z,100.00
2022-10-16T04:11:59.683Z,100.00
2022-10-16T04:17:03.273Z,100.00
2022-10-16T04:22:08.416Z,100.00
2022-10-16T04:27:12.098Z,100.00
2022-10-16T04:32:15.627Z,100.00
2022-10-16T04:37:26.615Z,100.00
2022-10-16T04:42:30.411Z,100.00
2022-10-16T04:47:34.059Z,100.00
2022-10-16T04:52:43.259Z,100.00
2022-10-16T04:57:46.770Z,100.00
2022-10-16T05:02:52.001Z,100.00
2022-10-16T05:07:57.142Z,100.00
2022-10-16T05:13:00.658Z,100.00
2022-10-16T05:18:04.431Z,100.00
2022-10-16T05:23:11.298Z,100.00
2022-10-16T05:28:14.858Z,100.00
2022-10-16T05:33:18.595Z,100.00
2022-10-16T05:38:23.538Z,100.00
2022-10-16T05:43:26.950Z,100.00
2022-10-16T05:48:32.069Z,100.00
2022-10-16T05:53:38.087Z,100.00
2022-10-16T05:58:42.628Z,100.00
2022-10-16T06:03:46.480Z,100.00
2022-10-16T06:08:52.474Z,100.00
2022-10-16T06:13:57.645Z,100.00
2022-10-16T06:19:01.453Z,100.00
2022-10-16T06:24:06.566Z,100.00
2022-10-16T06:35:27.213Z,100.00
2022-10-16T06:40:32.106Z,100.00
2022-10-16T06:45:35.637Z,100.00
2022-10-16T06:50:39.337Z,100.00
2022-10-16T06:55:47.679Z,100.00
2022-10-16T07:00:51.942Z,100.00
2022-10-16T07:05:55.475Z,100.00
2022-10-16T07:11:04.891Z,100.00
2022-10-16T07:16:09.150Z,100.00
2022-10-16T07:21:14.738Z,100.00
2022-10-16T07:26:20.457Z,100.00
2022-10-16T07:31:24.359Z,100.00
2022-10-16T07:36:29.482Z,100.00
2022-10-16T07:46:47.105Z,100.00
2022-10-16T07:51:50.581Z,100.00
2022-10-16T07:56:55.433Z,100.00
2022-10-16T08:01:58.816Z,100.00
2022-10-16T08:07:02.244Z,100.00
2022-10-16T08:12:07.147Z,100.00
2022-10-16T08:17:10.571Z,100.00
2022-10-16T08:27:24.230Z,99.15
2022-10-16T08:32:27.903Z,97.71
2022-10-16T08:37:32.323Z,96.54
2022-10-16T08:42:47.724Z,94.59
2022-10-16T08:47:52.559Z,93.15
2022-10-16T08:52:56.352Z,93.19
2022-10-16T08:58:02.506Z,93.47
2022-10-16T09:03:12.229Z,92.11
2022-10-16T09:08:21.190Z,92.26
2022-10-16T09:13:31.835Z,92.77
2022-10-16T09:18:38.494Z,92.39
2022-10-16T09:23:42.016Z,93.20
2022-10-16T09:28:47.063Z,93.04
2022-10-16T09:41:41.390Z,92.89
2022-10-16T09:46:48.238Z,94.46
2022-10-16T09:51:52.082Z,94.05
2022-10-16T09:57:06.787Z,94.23
2022-10-16T10:02:16.661Z,93.65
2022-10-16T10:07:23.968Z,92.45
2022-10-16T10:12:28.904Z,91.38
2022-10-16T10:17:33.837Z,89.97
2022-10-16T10:22:45.259Z,90.25
2022-10-16T10:28:13.268Z,91.06
2022-10-16T10:33:25.617Z,90.42
2022-10-16T10:38:35.244Z,91.12
2022-10-16T10:43:52.986Z,90.79
2022-10-16T10:49:11.593Z,90.96
2022-10-16T10:54:20.871Z,90.50
2022-10-16T10:59:42.819Z,90.77
2022-10-16T11:05:14.506Z,90.33
2022-10-16T11:10:21.426Z,89.16
2022-10-16T11:15:28.715Z,88.48
2022-10-16T11:20:37.523Z,87.72
2022-10-16T11:25:41.797Z,88.62
2022-10-16T11:30:47.318Z,87.79
2022-10-16T11:35:55.879Z,87.68
2022-10-16T11:41:02.728Z,86.96
2022-10-16T11:46:11.454Z,86.53
2022-10-16T11:51:22.203Z,87.21
2022-10-16T11:56:26.908Z,86.81
2022-10-16T12:01:33.819Z,87.97
2022-10-16T12:06:42.189Z,88.51
2022-10-16T12:11:45.594Z,88.53
2022-10-16T12:16:58.022Z,87.86
2022-10-16T12:22:04.610Z,88.54
2022-10-16T12:27:09.486Z,87.30
2022-10-16T12:37:51.022Z,85.98
2022-10-16T12:42:55.874Z,85.12
2022-10-16T12:48:00.118Z,83.33
2022-10-16T12:53:06.558Z,81.96
2022-10-16T12:58:20.326Z,82.78
2022-10-16T13:03:52.199Z,83.99
2022-10-16T13:09:07.462Z,82.70
2022-10-16T13:14:25.049Z,82.93
2022-10-16T13:19:33.058Z,81.88
2022-10-16T13:25:29.349Z,81.92
2022-10-16T13:30:44.556Z,83.72
2022-10-16T13:35:51.656Z,82.46
2022-10-16T13:41:02.525Z,81.03
2022-10-16T13:46:09.845Z,80.34
2022-10-16T13:51:17.165Z,80.77
2022-10-16T13:56:22.464Z,80.96
2022-10-16T14:01:32.505Z,81.31
2022-10-16T14:06:37.788Z,81.46
2022-10-16T14:11:52.490Z,82.67
2022-10-16T14:16:57.292Z,83.88
2022-10-16T14:22:01.384Z,84.51
2022-10-16T14:27:25.047Z,85.33
2022-10-16T14:32:30.400Z,85.69
2022-10-16T14:37:34.257Z,85.97
2022-10-16T14:42:37.981Z,86.20
2022-10-16T14:47:51.209Z,86.09
2022-10-16T14:52:54.647Z,86.70
2022-10-16T14:58:00.581Z,87.18
2022-10-16T15:03:05.899Z,87.37
2022-10-16T15:08:09.348Z,88.53
2022-10-16T15:13:14.942Z,88.95
2022-10-16T15:18:21.462Z,89.73
2022-10-16T15:28:28.848Z,90.64
2022-10-16T15:33:37.099Z,91.28
2022-10-16T15:38:43.223Z,91.88
2022-10-16T15:43:46.818Z,92.71
2022-10-16T15:48:52.843Z,93.39
2022-10-16T15:53:56.259Z,93.85
2022-10-16T15:59:25.044Z,94.48
2022-10-16T16:41:46.616Z,97.84
2022-10-16T16:55:14.946Z,98.72
2022-10-16T17:00:21.625Z,98.87
2022-10-16T17:05:25.461Z,99.32
2022-10-16T17:10:28.958Z,99.51
2022-10-16T17:15:34.642Z,99.42
2022-10-16T17:20:38.742Z,99.69
2022-10-16T17:25:43.445Z,99.45
2022-10-16T17:30:48.853Z,99.61
2022-10-16T17:35:57.944Z,99.47
2022-10-16T17:41:06.712Z,100.00
2022-10-16T17:46:12.325Z,99.93
2022-10-16T17:51:17.734Z,100.00
2022-10-16T17:56:21.420Z,100.00
2022-10-16T18:01:27.788Z,100.00
2022-10-16T18:06:32.654Z,100.00
2022-10-16T18:11:37.143Z,100.00
2022-10-16T18:16:41.998Z,100.00
2022-10-16T18:21:45.532Z,100.00
2022-10-16T18:26:56.695Z,100.00
2022-10-16T18:32:01.587Z,100.00
2022-10-16T18:37:54.647Z,100.00
2022-10-16T18:42:58.098Z,100.00
2022-10-16T18:48:03.017Z,100.00
2022-10-16T18:53:06.419Z,100.00
2022-10-16T18:58:10.203Z,100.00
2022-10-16T19:03:15.572Z,100.00
2022-10-16T19:14:03.561Z,100.00
2022-10-16T19:19:10.197Z,100.00
2022-10-16T19:24:28.297Z,100.00
2022-10-16T19:29:31.977Z,100.00
2022-10-16T19:34:36.877Z,100.00
2022-10-16T19:39:40.357Z,100.00
2022-10-16T19:44:43.821Z,100.00
2022-10-16T19:49:49.846Z,100.00
2022-10-16T19:54:57.374Z,100.00
2022-10-16T20:00:00.929Z,100.00
2022-10-16T20:05:06.465Z,100.00
2022-10-16T20:10:10.613Z,100.00
2022-10-16T20:15:14.060Z,100.00
2022-10-16T20:20:18.873Z,100.00
2022-10-16T20:25:22.333Z,100.00
2022-10-16T20:30:25.804Z,100.00
2022-10-16T20:35:30.929Z,100.00
2022-10-16T20:40:36.117Z,100.00
2022-10-16T20:45:39.524Z,100.00
2022-10-16T20:50:44.929Z,100.00
2022-10-16T21:01:20.785Z,100.00
2022-10-16T21:12:17.899Z,100.00
2022-10-16T21:17:21.517Z,100.00
2022-10-16T21:22:25.180Z,100.00
2022-10-16T21:27:30.343Z,100.00
2022-10-16T21:32:33.892Z,100.00
2022-10-16T21:37:37.403Z,99.93
2022-10-16T21:42:42.296Z,99.91
2022-10-16T21:47:45.659Z,99.91
2022-10-16T21:52:49.148Z,100.00
2022-10-16T21:57:54.007Z,100.00
2022-10-16T22:02:58.694Z,100.00
2022-10-16T22:08:02.329Z,100.00
2022-10-16T22:13:07.236Z,100.00
2022-10-16T22:18:10.628Z,100.00
2022-10-16T22:23:14.202Z,100.00
2022-10-16T22:28:19.263Z,100.00
2022-10-16T22:33:22.751Z,100.00
2022-10-16T22:38:26.230Z,100.00
2022-10-16T22:43:31.254Z,100.00
2022-10-16T22:48:35.170Z,100.00
2022-10-16T22:53:38.714Z,100.00
2022-10-16T22:58:44.036Z,100.00
2022-10-16T23:03:47.609Z,100.00
2022-10-16T23:08:54.900Z,100.00
2022-10-16T23:13:59.921Z,100.00
2022-10-16T23:19:03.411Z,100.00
2022-10-16T23:24:07.516Z,100.00
2022-10-16T23:29:12.407Z,100.00
2022-10-16T23:34:15.890Z,100.00
2022-10-16T23:39:19.338Z,100.00
2022-10-16T23:44:24.801Z,100.00
2022-10-16T23:49:29.385Z,100.00
2022-10-16T23:54:32.722Z,100.00
2022-10-16T23:59:37.561Z,100.00
